createdAt,value
2023-04-02T00:00:15.420Z,9.04
2023-04-02T00:01:28.484Z,9.07
2023-04-02T00:02:22.897Z,9.06
2023-04-02T00:03:15.375Z,9.09
2023-04-02T00:04:22.341Z,9.11
2023-04-02T00:05:18.283Z,9.09
2023-04-02T00:06:33.932Z,9.12
2023-04-02T00:07:33.304Z,9.09
2023-04-02T00:08:42.862Z,9.08
2023-04-02T00:09:38.041Z,9.08
2023-04-02T00:10:40.045Z,9.02
2023-04-02T00:11:37.435Z,9.02
2023-04-02T00:12:31.325Z,9.02
2023-04-02T00:13:35.661Z,9.02
2023-04-02T00:14:32.014Z,9.05
2023-04-02T00:15:23.508Z,9.07
2023-04-02T00:16:23.728Z,9.05
2023-04-02T00:17:18.250Z,9.05
2023-04-02T00:18:18.310Z,9.03
2023-04-02T00:19:29.553Z,9.04
2023-04-02T00:20:22.938Z,9.04
2023-04-02T00:21:21.242Z,9.04
2023-04-02T00:22:22.446Z,9.04
2023-04-02T00:23:15.469Z,9.06
2023-04-02T00:24:20.230Z,9.06
2023-04-02T00:25:15.794Z,9.04
2023-04-02T00:26:21.565Z,9.03
2023-04-02T00:27:15.681Z,9.05
2023-04-02T00:28:14.070Z,9.05
2023-04-02T00:29:07.381Z,9.04
2023-04-02T00:29:59.296Z,9.03
2023-04-02T00:30:55.511Z,9.03
2023-04-02T00:31:52.677Z,9.03
2023-04-02T00:32:44.350Z,9.00
2023-04-02T00:33:36.170Z,9.01
2023-04-02T00:34:37.656Z,8.99
2023-04-02T00:35:30.817Z,9.00
2023-04-02T00:36:28.096Z,9.00
2023-04-02T00:37:23.739Z,9.00
2023-04-02T00:38:20.262Z,8.99
2023-04-02T00:39:20.262Z,8.98
2023-04-02T00:40:25.595Z,8.98
2023-04-02T00:41:24.187Z,8.99
2023-04-02T00:42:18.157Z,9.00
2023-04-02T00:43:16.428Z,8.99
2023-04-02T00:44:12.421Z,8.96
2023-04-02T00:45:07.672Z,8.95
2023-04-02T00:46:04.032Z,8.94
2023-04-02T00:46:58.220Z,8.90
2023-04-02T00:47:50.944Z,8.90
2023-04-02T00:48:56.205Z,8.91
2023-04-02T00:49:56.973Z,8.90
2023-04-02T00:50:49.170Z,8.93
2023-04-02T00:51:56.727Z,8.87
2023-04-02T00:52:53.967Z,8.79
2023-04-02T00:53:49.229Z,8.80
2023-04-02T00:54:53.243Z,8.88
2023-04-02T00:55:46.123Z,8.79
2023-04-02T00:56:41.973Z,8.80
2023-04-02T00:57:34.821Z,8.77
2023-04-02T00:58:33.600Z,8.72
2023-04-02T00:59:31.437Z,8.71
2023-04-02T01:00:29.224Z,8.64
2023-04-02T01:01:26.858Z,8.63
2023-04-02T01:02:18.490Z,8.57
2023-04-02T01:03:16.919Z,8.53
2023-04-02T01:04:32.568Z,8.47
2023-04-02T01:05:24.530Z,8.43
2023-04-02T01:06:18.789Z,8.37
2023-04-02T01:07:12.261Z,8.32
2023-04-02T01:08:06.725Z,8.26
2023-04-02T01:09:26.701Z,8.23
2023-04-02T01:10:42.579Z,8.18
2023-04-02T01:11:47.904Z,8.24
2023-04-02T01:12:53.567Z,8.14
2023-04-02T01:14:07.217Z,8.17
2023-04-02T01:15:21.294Z,8.15
2023-04-02T01:16:37.462Z,8.08
2023-04-02T01:17:49.078Z,8.03
2023-04-02T01:19:07.373Z,7.95
2023-04-02T01:20:27.723Z,7.96
2023-04-02T01:21:31.596Z,7.93
2023-04-02T01:22:52.798Z,7.90
2023-04-02T01:24:15.840Z,7.92
2023-04-02T01:25:08.415Z,7.90
2023-04-02T01:26:18.958Z,7.87
2023-04-02T01:27:29.750Z,7.90
2023-04-02T01:28:51.288Z,7.89
2023-04-02T01:30:01.205Z,7.88
2023-04-02T01:30:56.477Z,7.90
2023-04-02T01:31:51.928Z,7.91
2023-04-02T01:32:45.335Z,7.94
2023-04-02T01:33:40.830Z,7.92
2023-04-02T01:34:33.690Z,7.90
2023-04-02T01:35:34.635Z,7.89
2023-04-02T01:37:02.892Z,7.87
2023-04-02T01:38:14.064Z,7.88
2023-04-02T01:39:25.978Z,7.88
2023-04-02T01:40:28.282Z,7.95
2023-04-02T01:41:46.325Z,7.83
2023-04-02T01:42:51.953Z,7.77
2023-04-02T01:43:58.925Z,7.77
2023-04-02T01:45:01.481Z,7.78
2023-04-02T01:45:53.074Z,7.84
2023-04-02T01:46:48.881Z,7.80
2023-04-02T01:47:42.878Z,7.78
2023-04-02T01:48:34.479Z,7.81
2023-04-02T01:49:27.272Z,7.82
2023-04-02T01:50:19.126Z,7.86
2023-04-02T01:51:27.609Z,7.82
2023-04-02T01:52:38.996Z,7.81
2023-04-02T01:53:31.294Z,7.79
2023-04-02T01:54:25.866Z,7.74
2023-04-02T01:55:24.486Z,7.76
2023-04-02T01:56:16.006Z,7.76
2023-04-02T01:57:09.198Z,7.76
2023-04-02T01:58:03.711Z,7.75
2023-04-02T01:58:58.408Z,7.69
2023-04-02T01:59:53.673Z,7.64
2023-04-02T02:00:55.845Z,7.69
2023-04-02T02:01:52.353Z,7.69
2023-04-02T02:02:49.389Z,7.72
2023-04-02T02:03:44.378Z,7.73
2023-04-02T02:04:37.008Z,7.68
2023-04-02T02:05:31.338Z,7.61
2023-04-02T02:06:24.388Z,7.60
2023-04-02T02:07:20.727Z,7.57
2023-04-02T02:08:30.438Z,7.56
2023-04-02T02:09:27.569Z,7.61
2023-04-02T02:10:27.263Z,7.58
2023-04-02T02:11:22.970Z,7.64
2023-04-02T02:12:15.714Z,7.67
2023-04-02T02:13:07.403Z,7.57
2023-04-02T02:14:18.601Z,7.50
2023-04-02T02:15:17.401Z,7.54
2023-04-02T02:16:17.765Z,7.53
2023-04-02T02:17:24.016Z,7.54
2023-04-02T02:18:23.412Z,7.49
2023-04-02T02:19:27.188Z,7.47
2023-04-02T02:20:18.938Z,7.43
2023-04-02T02:21:21.418Z,7.41
2023-04-02T02:22:33.682Z,7.44
2023-04-02T02:23:29.753Z,7.47
2023-04-02T02:24:27.109Z,7.52
2023-04-02T02:25:22.394Z,7.50
2023-04-02T02:26:16.010Z,7.51
2023-04-02T02:27:48.180Z,7.51
2023-04-02T02:28:49.929Z,7.52
2023-04-02T02:29:45.641Z,7.53
2023-04-02T02:30:51.278Z,7.52
2023-04-02T02:31:47.513Z,7.46
2023-04-02T02:32:54.113Z,7.58
2023-04-02T02:34:01.750Z,7.48
2023-04-02T02:35:12.633Z,7.49
2023-04-02T02:36:33.769Z,7.45
2023-04-02T02:37:35.114Z,7.41
2023-04-02T02:38:48.620Z,7.36
2023-04-02T02:39:55.109Z,7.36
2023-04-02T02:40:53.224Z,7.40
2023-04-02T02:42:12.178Z,7.37
2023-04-02T02:43:12.290Z,7.29
2023-04-02T02:44:17.505Z,7.30
2023-04-02T02:45:22.410Z,7.24
2023-04-02T02:46:20.322Z,7.24
2023-04-02T02:47:19.550Z,7.19
2023-04-02T02:48:19.657Z,7.21
2023-04-02T02:49:22.678Z,7.19
2023-04-02T02:50:23.078Z,7.16
2023-04-02T02:51:27.550Z,7.16
2023-04-02T02:52:41.388Z,7.16
2023-04-02T02:53:49.650Z,7.11
2023-04-02T02:54:51.550Z,7.05
2023-04-02T02:55:43.909Z,7.08
2023-04-02T02:56:55.804Z,7.09
2023-04-02T02:57:53.062Z,7.06
2023-04-02T02:58:45.905Z,7.10
2023-04-02T02:59:46.879Z,7.03
2023-04-02T03:00:42.175Z,7.02
2023-04-02T03:01:34.062Z,6.96
2023-04-02T03:02:29.335Z,6.93
2023-04-02T03:03:28.006Z,6.97
2023-04-02T03:04:25.031Z,7.02
2023-04-02T03:05:24.962Z,7.00
2023-04-02T03:06:21.335Z,7.02
2023-04-02T03:07:25.562Z,6.93
2023-04-02T03:08:29.182Z,6.95
2023-04-02T03:09:41.189Z,6.98
2023-04-02T03:11:08.143Z,6.92
2023-04-02T03:12:29.500Z,6.87
2023-04-02T03:13:29.012Z,6.88
2023-04-02T03:14:32.585Z,6.78
2023-04-02T03:15:48.013Z,6.87
2023-04-02T03:16:49.018Z,6.82
2023-04-02T03:17:58.939Z,6.83
2023-04-02T03:19:05.312Z,6.81
2023-04-02T03:20:13.627Z,6.79
2023-04-02T03:21:29.566Z,6.77
2023-04-02T03:22:37.248Z,6.73
2023-04-02T03:23:51.305Z,6.66
2023-04-02T03:25:22.939Z,6.73
2023-04-02T03:26:36.959Z,6.68
2023-04-02T03:27:36.550Z,6.65
2023-04-02T03:28:37.369Z,6.64
2023-04-02T03:29:35.705Z,6.63
2023-04-02T03:30:53.769Z,6.67
2023-04-02T03:32:14.738Z,6.67
2023-04-02T03:33:33.976Z,6.70
2023-04-02T03:34:44.204Z,6.71
2023-04-02T03:36:22.443Z,6.74
2023-04-02T03:37:22.691Z,6.68
2023-04-02T03:38:25.254Z,6.63
2023-04-02T03:39:26.919Z,6.63
2023-04-02T03:40:25.377Z,6.59
2023-04-02T03:41:24.278Z,6.54
2023-04-02T03:42:27.134Z,6.53
2023-04-02T03:43:36.841Z,6.53
2023-04-02T03:45:00.283Z,6.54
2023-04-02T03:46:02.946Z,6.60
2023-04-02T03:47:35.296Z,6.60
2023-04-02T03:48:38.881Z,6.59
2023-04-02T03:49:39.220Z,6.62
2023-04-02T03:50:57.316Z,6.56
2023-04-02T03:51:58.206Z,6.52
2023-04-02T03:52:50.391Z,6.53
2023-04-02T03:53:44.592Z,6.43
2023-04-02T03:54:38.290Z,6.45
2023-04-02T03:55:33.734Z,6.42
2023-04-02T03:56:28.989Z,6.42
2023-04-02T03:57:48.244Z,6.39
2023-04-02T03:58:47.333Z,6.35
2023-04-02T04:00:02.336Z,6.40
2023-04-02T04:01:05.804Z,6.43
2023-04-02T04:02:34.933Z,6.50
2023-04-02T04:03:32.746Z,6.43
2023-04-02T04:04:30.344Z,6.42
2023-04-02T04:05:28.502Z,6.36
2023-04-02T04:06:29.639Z,6.35
2023-04-02T04:07:36.692Z,6.37
2023-04-02T04:08:42.858Z,6.33
2023-04-02T04:09:39.184Z,6.34
2023-04-02T04:10:33.027Z,6.34
2023-04-02T04:11:32.334Z,6.29
2023-04-02T04:12:40.136Z,6.17
2023-04-02T04:14:03.108Z,6.22
2023-04-02T04:15:07.184Z,6.24
2023-04-02T04:16:07.855Z,6.22
2023-04-02T04:17:09.531Z,6.22
2023-04-02T04:18:43.907Z,6.18
2023-04-02T04:19:48.544Z,6.19
2023-04-02T04:20:57.009Z,6.22
2023-04-02T04:21:56.991Z,6.21
2023-04-02T04:22:55.942Z,6.12
2023-04-02T04:23:51.600Z,6.10
2023-04-02T04:24:47.995Z,6.13
2023-04-02T04:25:41.710Z,6.01
2023-04-02T04:27:09.736Z,6.03
2023-04-02T04:28:21.497Z,6.01
2023-04-02T04:29:38.326Z,5.98
2023-04-02T04:30:53.352Z,5.98
2023-04-02T04:31:56.748Z,5.89
2023-04-02T04:33:01.823Z,5.89
2023-04-02T04:34:04.850Z,5.91
2023-04-02T04:35:08.140Z,5.92
2023-04-02T04:36:03.282Z,5.95
2023-04-02T04:37:07.994Z,5.98
2023-04-02T04:38:18.233Z,5.93
2023-04-02T04:39:17.805Z,5.95
2023-04-02T04:40:22.917Z,6.00
2023-04-02T04:41:24.308Z,5.96
2023-04-02T04:42:28.294Z,6.01
2023-04-02T04:43:45.553Z,5.93
2023-04-02T04:44:55.360Z,5.90
2023-04-02T04:46:03.436Z,5.90
2023-04-02T04:47:16.719Z,5.93
2023-04-02T04:48:26.808Z,5.89
2023-04-02T04:49:43.929Z,5.88
2023-04-02T04:50:42.255Z,5.86
2023-04-02T04:51:42.428Z,5.88
2023-04-02T04:52:38.625Z,5.86
2023-04-02T04:53:31.764Z,5.85
2023-04-02T04:54:28.732Z,5.84
2023-04-02T04:55:29.536Z,5.82
2023-04-02T04:56:27.975Z,5.79
2023-04-02T04:57:36.604Z,5.86
2023-04-02T04:58:48.233Z,5.83
2023-04-02T04:59:47.087Z,5.75
2023-04-02T05:01:03.453Z,5.78
2023-04-02T05:02:10.476Z,5.75
2023-04-02T05:03:21.859Z,5.86
2023-04-02T05:04:19.248Z,5.85
2023-04-02T05:05:24.138Z,5.84
2023-04-02T05:06:42.347Z,5.79
2023-04-02T05:07:49.197Z,5.79
2023-04-02T05:08:48.264Z,5.76
2023-04-02T05:10:13.270Z,5.76
2023-04-02T05:11:19.258Z,5.80
2023-04-02T05:12:32.426Z,5.75
2023-04-02T05:13:35.608Z,5.75
2023-04-02T05:14:42.258Z,5.76
2023-04-02T05:15:55.564Z,5.78
2023-04-02T05:17:06.010Z,5.80
2023-04-02T05:18:27.757Z,5.74
2023-04-02T05:19:32.815Z,5.80
2023-04-02T05:20:40.554Z,5.81
2023-04-02T05:21:54.777Z,5.78
2023-04-02T05:22:58.522Z,5.77
2023-04-02T05:24:24.423Z,5.79
2023-04-02T05:25:32.080Z,5.77
2023-04-02T05:26:41.243Z,5.75
2023-04-02T05:27:47.651Z,5.74
2023-04-02T05:28:52.361Z,5.74
2023-04-02T05:29:52.034Z,5.73
2023-04-02T05:31:04.493Z,5.77
2023-04-02T05:32:23.001Z,5.73
2023-04-02T05:33:23.872Z,5.77
2023-04-02T05:34:27.726Z,5.76
2023-04-02T05:35:28.537Z,5.77
2023-04-02T05:36:25.198Z,5.82
2023-04-02T05:37:24.556Z,5.79
2023-04-02T05:38:27.513Z,5.81
2023-04-02T05:39:24.498Z,5.78
2023-04-02T05:40:36.239Z,5.73
2023-04-02T05:41:58.234Z,5.69
2023-04-02T05:43:07.633Z,5.78
2023-04-02T05:44:06.574Z,5.80
2023-04-02T05:45:23.657Z,5.79
2023-04-02T05:46:25.005Z,5.81
2023-04-02T05:47:28.435Z,5.72
2023-04-02T05:48:30.661Z,5.71
2023-04-02T05:49:39.259Z,5.72
2023-04-02T05:50:37.584Z,5.71
2023-04-02T05:51:46.143Z,5.75
2023-04-02T05:52:47.287Z,5.73
2023-04-02T05:53:49.640Z,5.73
2023-04-02T05:55:03.283Z,5.71
2023-04-02T05:56:03.149Z,5.72
2023-04-02T05:57:42.680Z,5.65
2023-04-02T05:58:43.920Z,5.65
2023-04-02T05:59:54.372Z,5.62
2023-04-02T06:01:00.979Z,5.66
2023-04-02T06:02:03.286Z,5.61
2023-04-02T06:03:07.473Z,5.59
2023-04-02T06:04:26.671Z,5.58
2023-04-02T06:05:36.823Z,5.55
2023-04-02T06:06:41.412Z,5.61
2023-04-02T06:07:40.978Z,5.58
2023-04-02T06:08:43.357Z,5.61
2023-04-02T06:10:01.290Z,5.63
2023-04-02T06:10:57.081Z,5.65
2023-04-02T06:12:19.241Z,5.68
2023-04-02T06:13:18.594Z,5.60
2023-04-02T06:14:14.254Z,5.61
2023-04-02T06:15:06.843Z,5.65
2023-04-02T06:15:58.528Z,5.65
2023-04-02T06:16:54.771Z,5.67
2023-04-02T06:17:53.657Z,5.64
2023-04-02T06:18:46.033Z,5.61
2023-04-02T06:19:42.042Z,5.68
2023-04-02T06:20:34.411Z,5.68
2023-04-02T06:21:25.984Z,5.66
2023-04-02T06:22:21.243Z,5.67
2023-04-02T06:23:38.750Z,5.70
2023-04-02T06:24:34.358Z,5.63
2023-04-02T06:25:38.018Z,5.67
2023-04-02T06:26:39.742Z,5.68
2023-04-02T06:27:34.754Z,5.70
2023-04-02T06:28:43.099Z,5.68
2023-04-02T06:29:39.878Z,5.66
2023-04-02T06:30:41.675Z,5.65
2023-04-02T06:31:47.421Z,5.65
2023-04-02T06:32:40.601Z,5.68
2023-04-02T06:33:32.434Z,5.70
2023-04-02T06:34:27.850Z,5.69
2023-04-02T06:35:30.387Z,5.79
2023-04-02T06:36:28.420Z,5.73
2023-04-02T06:37:38.582Z,5.79
2023-04-02T06:38:54.468Z,5.84
2023-04-02T06:39:46.523Z,5.74
2023-04-02T06:40:46.724Z,5.67
2023-04-02T06:41:56.694Z,5.70
2023-04-02T06:43:11.628Z,5.69
2023-04-02T06:44:28.007Z,5.59
2023-04-02T06:45:41.980Z,5.61
2023-04-02T06:47:10.768Z,5.69
2023-04-02T06:48:04.345Z,5.65
2023-04-02T06:49:20.642Z,5.62
2023-04-02T06:50:28.679Z,5.64
2023-04-02T06:51:26.097Z,5.77
2023-04-02T06:52:35.102Z,5.80
2023-04-02T06:53:37.695Z,5.72
2023-04-02T06:54:30.567Z,5.70
2023-04-02T06:55:34.054Z,5.62
2023-04-02T06:56:31.860Z,5.60
2023-04-02T06:57:23.793Z,5.55
2023-04-02T06:58:19.493Z,5.53
2023-04-02T06:59:12.764Z,5.57
2023-04-02T07:00:04.915Z,5.57
2023-04-02T07:00:57.413Z,5.52
2023-04-02T07:02:34.362Z,5.49
2023-04-02T07:03:30.457Z,5.50
2023-04-02T07:04:26.372Z,5.58
2023-04-02T07:05:21.161Z,5.63
2023-04-02T07:06:19.183Z,5.76
2023-04-02T07:07:12.234Z,5.67
2023-04-02T07:08:07.916Z,5.60
2023-04-02T07:08:59.298Z,5.57
2023-04-02T07:09:51.170Z,5.50
2023-04-02T07:10:42.691Z,5.47
2023-04-02T07:11:35.336Z,5.52
2023-04-02T07:12:29.582Z,5.53
2023-04-02T07:13:24.180Z,5.57
2023-04-02T07:14:15.981Z,5.56
2023-04-02T07:15:07.781Z,5.60
2023-04-02T07:16:02.752Z,5.62
2023-04-02T07:16:54.739Z,5.60
2023-04-02T07:17:46.794Z,5.52
2023-04-02T07:18:38.566Z,5.53
2023-04-02T07:19:31.349Z,5.54
2023-04-02T07:20:30.797Z,5.48
2023-04-02T07:21:28.938Z,5.50
2023-04-02T07:22:22.121Z,5.47
2023-04-02T07:23:21.171Z,5.53
2023-04-02T07:24:13.081Z,5.59
2023-04-02T07:25:04.697Z,5.62
2023-04-02T07:25:58.427Z,5.67
2023-04-02T07:26:49.964Z,5.63
2023-04-02T07:27:43.712Z,5.70
2023-04-02T07:28:35.405Z,5.72
2023-04-02T07:29:28.525Z,5.62
2023-04-02T07:30:20.217Z,5.51
2023-04-02T07:31:24.405Z,5.49
2023-04-02T07:32:16.277Z,5.51
2023-04-02T07:33:13.270Z,5.56
2023-04-02T07:34:07.071Z,5.53
2023-04-02T07:34:58.590Z,5.56
2023-04-02T07:35:51.670Z,5.55
2023-04-02T07:36:43.122Z,5.55
2023-04-02T07:37:34.903Z,5.49
2023-04-02T07:38:27.053Z,5.51
2023-04-02T07:39:18.660Z,5.55
2023-04-02T07:40:18.229Z,5.64
2023-04-02T07:41:13.449Z,5.77
2023-04-02T07:42:04.906Z,5.74
2023-04-02T07:42:56.327Z,5.70
2023-04-02T07:43:47.849Z,5.69
2023-04-02T07:44:39.260Z,5.63
2023-04-02T07:45:31.390Z,5.66
2023-04-02T07:46:22.955Z,5.70
2023-04-02T07:47:16.874Z,5.79
2023-04-02T07:48:13.310Z,5.68
2023-04-02T07:49:05.047Z,5.76
2023-04-02T07:49:56.496Z,5.75
2023-04-02T07:50:48.252Z,5.81
2023-04-02T07:51:40.028Z,5.98
2023-04-02T07:52:31.556Z,6.08
2023-04-02T07:53:29.936Z,6.08
2023-04-02T07:54:24.109Z,6.11
2023-04-02T07:55:16.962Z,6.11
2023-04-02T07:56:08.552Z,6.07
2023-04-02T07:57:00.085Z,6.11
2023-04-02T07:57:56.629Z,6.18
2023-04-02T07:58:48.164Z,6.19
2023-04-02T07:59:39.779Z,6.16
2023-04-02T08:00:31.216Z,6.15
2023-04-02T08:01:26.312Z,6.15
2023-04-02T08:02:22.319Z,6.08
2023-04-02T08:03:14.037Z,6.16
2023-04-02T08:04:07.964Z,6.10
2023-04-02T08:04:59.730Z,6.05
2023-04-02T08:05:56.578Z,6.00
2023-04-02T08:06:50.300Z,6.03
2023-04-02T08:07:42.297Z,5.92
2023-04-02T08:08:33.672Z,6.01
2023-04-02T08:09:26.744Z,5.89
2023-04-02T08:10:20.181Z,5.84
2023-04-02T08:11:14.461Z,5.90
2023-04-02T08:12:06.382Z,5.98
2023-04-02T08:12:57.882Z,5.93
2023-04-02T08:13:49.401Z,5.95
2023-04-02T08:14:40.996Z,5.89
2023-04-02T08:15:32.498Z,5.91
2023-04-02T08:16:25.267Z,5.91
2023-04-02T08:17:17.023Z,5.87
2023-04-02T08:18:08.652Z,5.75
2023-04-02T08:19:01.588Z,5.67
2023-04-02T08:19:55.035Z,5.67
2023-04-02T08:20:47.161Z,5.67
2023-04-02T08:21:38.808Z,5.66
2023-04-02T08:22:31.798Z,5.69
2023-04-02T08:23:24.712Z,5.78
2023-04-02T08:24:19.075Z,5.81
2023-04-02T08:25:20.017Z,5.89
2023-04-02T08:26:17.279Z,5.89
2023-04-02T08:27:15.136Z,5.90
2023-04-02T08:28:08.058Z,5.96
2023-04-02T08:28:59.551Z,6.01
2023-04-02T08:29:51.142Z,6.08
2023-04-02T08:30:42.893Z,6.17
2023-04-02T08:31:34.333Z,6.11
2023-04-02T08:32:28.784Z,6.19
2023-04-02T08:33:22.507Z,6.22
2023-04-02T08:34:15.601Z,6.24
2023-04-02T08:35:08.596Z,6.19
2023-04-02T08:36:02.703Z,6.15
2023-04-02T08:36:58.673Z,6.14
2023-04-02T08:37:50.469Z,6.07
2023-04-02T08:38:42.102Z,5.96
2023-04-02T08:39:35.059Z,5.98
2023-04-02T08:40:49.097Z,6.07
2023-04-02T08:42:06.783Z,6.16
2023-04-02T08:43:23.766Z,6.25
2023-04-02T08:44:44.742Z,6.21
2023-04-02T08:46:10.690Z,6.21
2023-04-02T08:47:06.918Z,6.10
2023-04-02T08:47:59.908Z,6.00
2023-04-02T08:48:58.837Z,5.99
2023-04-02T08:50:00.813Z,6.00
2023-04-02T08:50:52.906Z,6.10
2023-04-02T08:51:47.219Z,6.15
2023-04-02T08:52:39.130Z,6.12
2023-04-02T08:53:36.764Z,6.26
2023-04-02T08:54:34.321Z,6.27
2023-04-02T08:55:47.782Z,6.39
2023-04-02T08:57:04.099Z,6.48
2023-04-02T08:58:13.228Z,6.37
2023-04-02T08:59:36.166Z,6.46
2023-04-02T09:00:44.063Z,6.45
2023-04-02T09:01:48.579Z,6.36
2023-04-02T09:02:49.379Z,6.41
2023-04-02T09:03:54.339Z,6.40
2023-04-02T09:04:46.075Z,6.45
2023-04-02T09:05:50.679Z,6.50
2023-04-02T09:06:43.926Z,6.47
2023-04-02T09:07:37.783Z,6.38
2023-04-02T09:08:33.372Z,6.41
2023-04-02T09:09:30.689Z,6.46
2023-04-02T09:10:39.193Z,6.32
2023-04-02T09:11:44.760Z,6.26
2023-04-02T09:12:43.561Z,6.29
2023-04-02T09:13:48.940Z,6.47
2023-04-02T09:15:02.988Z,6.60
2023-04-02T09:16:10.717Z,6.72
2023-04-02T09:17:04.552Z,6.62
2023-04-02T09:18:12.878Z,6.76
2023-04-02T09:19:26.172Z,6.82
2023-04-02T09:20:23.985Z,6.84
2023-04-02T09:21:33.076Z,7.08
2023-04-02T09:22:31.847Z,7.07
2023-04-02T09:23:26.801Z,7.17
2023-04-02T09:24:22.340Z,7.08
2023-04-02T09:25:27.043Z,7.05
2023-04-02T09:26:24.708Z,6.86
2023-04-02T09:27:23.505Z,6.87
2023-04-02T09:28:15.707Z,6.91
2023-04-02T09:29:31.335Z,6.88
2023-04-02T09:30:29.651Z,6.95
2023-04-02T09:31:34.436Z,6.94
2023-04-02T09:32:54.571Z,7.02
2023-04-02T09:33:49.137Z,6.99
2023-04-02T09:34:40.613Z,6.86
2023-04-02T09:35:34.467Z,6.82
2023-04-02T09:36:36.513Z,6.80
2023-04-02T09:37:27.971Z,6.88
2023-04-02T09:38:39.412Z,6.90
2023-04-02T09:39:32.721Z,6.85
2023-04-02T09:40:34.119Z,6.86
2023-04-02T09:41:29.469Z,6.90
2023-04-02T09:42:36.159Z,6.93
2023-04-02T09:43:32.318Z,6.88
2023-04-02T09:44:26.269Z,6.72
2023-04-02T09:45:25.313Z,6.57
2023-04-02T09:46:25.812Z,6.44
2023-04-02T09:47:26.281Z,6.47
2023-04-02T09:48:30.497Z,6.43
2023-04-02T09:49:27.096Z,6.39
2023-04-02T09:50:21.502Z,6.19
2023-04-02T09:51:22.867Z,6.23
2023-04-02T09:52:19.972Z,6.13
2023-04-02T09:53:29.536Z,6.22
2023-04-02T09:54:23.252Z,6.29
2023-04-02T09:55:15.279Z,6.33
2023-04-02T09:56:24.330Z,6.47
2023-04-02T09:57:23.538Z,6.43
2023-04-02T09:58:21.120Z,6.49
2023-04-02T09:59:13.526Z,6.54
2023-04-02T10:00:29.874Z,6.75
2023-04-02T10:01:29.881Z,6.69
2023-04-02T10:02:30.158Z,6.54
2023-04-02T10:03:26.106Z,6.41
2023-04-02T10:04:36.290Z,6.53
2023-04-02T10:05:40.731Z,6.52
2023-04-02T10:06:37.923Z,6.60
2023-04-02T10:07:43.720Z,6.76
2023-04-02T10:08:36.664Z,6.83
2023-04-02T10:09:37.083Z,7.03
2023-04-02T10:10:32.982Z,7.03
2023-04-02T10:11:46.316Z,7.15
2023-04-02T10:12:48.668Z,7.28
2023-04-02T10:14:11.910Z,7.21
2023-04-02T10:15:06.053Z,7.24
2023-04-02T10:16:24.397Z,7.05
2023-04-02T10:17:31.313Z,6.95
2023-04-02T10:18:46.635Z,7.17
2023-04-02T10:19:45.810Z,7.22
2023-04-02T10:20:50.472Z,7.23
2023-04-02T10:21:47.129Z,7.45
2023-04-02T10:22:46.156Z,7.57
2023-04-02T10:23:37.621Z,7.73
2023-04-02T10:24:31.454Z,7.74
2023-04-02T10:25:30.154Z,7.77
2023-04-02T10:26:37.997Z,7.83
2023-04-02T10:27:45.214Z,7.89
2023-04-02T10:29:14.300Z,7.87
2023-04-02T10:30:29.225Z,7.84
2023-04-02T10:31:33.456Z,7.75
2023-04-02T10:32:36.742Z,7.59
2023-04-02T10:33:37.069Z,7.45
2023-04-02T10:34:37.493Z,7.44
2023-04-02T10:35:38.596Z,7.39
2023-04-02T10:36:52.980Z,7.34
2023-04-02T10:38:18.204Z,7.44
2023-04-02T10:39:24.104Z,7.72
2023-04-02T10:40:38.695Z,7.93
2023-04-02T10:41:46.157Z,8.04
2023-04-02T10:43:21.796Z,8.07
2023-04-02T10:44:39.156Z,8.15
2023-04-02T10:46:02.932Z,8.16
2023-04-02T10:47:06.475Z,8.09
2023-04-02T10:48:28.691Z,7.98
2023-04-02T10:49:51.120Z,8.06
2023-04-02T10:50:54.433Z,8.01
2023-04-02T10:51:51.536Z,8.00
2023-04-02T10:52:55.034Z,8.06
2023-04-02T10:54:18.605Z,8.07
2023-04-02T10:55:33.983Z,8.29
2023-04-02T10:56:44.172Z,8.19
2023-04-02T10:57:43.074Z,8.28
2023-04-02T10:58:47.773Z,8.39
2023-04-02T11:00:39.989Z,8.08
2023-04-02T11:01:41.491Z,8.16
2023-04-02T11:02:53.364Z,8.19
2023-04-02T11:03:57.799Z,8.16
2023-04-02T11:04:57.086Z,8.48
2023-04-02T11:06:00.499Z,8.57
2023-04-02T11:07:13.275Z,8.48
2023-04-02T11:08:46.801Z,8.51
2023-04-02T11:09:44.682Z,8.50
2023-04-02T11:10:44.561Z,8.42
2023-04-02T11:11:41.940Z,8.58
2023-04-02T11:12:49.683Z,8.57
2023-04-02T11:14:02.655Z,8.72
2023-04-02T11:14:56.392Z,8.39
2023-04-02T11:15:51.305Z,8.16
2023-04-02T11:17:13.228Z,8.21
2023-04-02T11:18:24.384Z,8.20
2023-04-02T11:19:19.581Z,8.26
2023-04-02T11:20:49.823Z,8.23
2023-04-02T11:22:01.319Z,8.07
2023-04-02T11:23:12.370Z,8.14
2023-04-02T11:24:06.355Z,8.24
2023-04-02T11:24:58.776Z,8.16
2023-04-02T11:25:50.243Z,8.25
2023-04-02T11:26:47.393Z,8.28
2023-04-02T11:27:47.828Z,8.52
2023-04-02T11:30:18.639Z,8.76
2023-04-02T11:31:20.613Z,8.33
2023-04-02T11:32:27.039Z,7.98
2023-04-02T11:33:44.070Z,7.77
2023-04-02T11:35:03.078Z,7.75
2023-04-02T11:35:58.734Z,7.96
2023-04-02T11:36:53.694Z,7.99
2023-04-02T11:37:46.046Z,8.13
2023-04-02T11:38:52.343Z,8.04
2023-04-02T11:39:59.592Z,8.08
2023-04-02T11:40:54.928Z,8.10
2023-04-02T11:42:24.835Z,8.19
2023-04-02T11:43:35.226Z,8.31
2023-04-02T11:44:26.872Z,8.35
2023-04-02T11:45:25.685Z,8.28
2023-04-02T11:46:19.791Z,8.33
2023-04-02T11:47:22.657Z,8.71
2023-04-02T11:48:17.328Z,8.85
2023-04-02T11:49:39.228Z,8.89
2023-04-02T11:50:41.281Z,8.82
2023-04-02T11:51:33.913Z,9.04
2023-04-02T11:52:45.311Z,9.14
2023-04-02T11:53:36.966Z,8.83
2023-04-02T11:54:33.175Z,8.64
2023-04-02T11:55:29.650Z,8.48
2023-04-02T11:56:35.211Z,8.67
2023-04-02T11:57:43.723Z,8.78
2023-04-02T11:59:05.313Z,8.97
2023-04-02T12:00:11.532Z,8.90
2023-04-02T12:01:09.078Z,8.81
2023-04-02T12:02:21.117Z,8.81
2023-04-02T12:03:38.328Z,8.74
2023-04-02T12:04:54.446Z,8.64
2023-04-02T12:05:58.647Z,8.78
2023-04-02T12:07:18.880Z,8.82
2023-04-02T12:09:04.661Z,8.74
2023-04-02T12:10:02.690Z,8.49
2023-04-02T12:10:59.408Z,8.54
2023-04-02T12:11:55.406Z,8.46
2023-04-02T12:12:52.270Z,8.40
2023-04-02T12:13:43.640Z,8.47
2023-04-02T12:14:38.058Z,8.51
2023-04-02T12:15:46.524Z,8.46
2023-04-02T12:16:38.365Z,8.70
2023-04-02T12:18:55.956Z,8.61
2023-04-02T12:19:51.456Z,8.71
2023-04-02T12:20:50.794Z,8.66
2023-04-02T12:21:51.085Z,8.46
2023-04-02T12:22:53.973Z,8.29
2023-04-02T12:23:49.311Z,8.28
2023-04-02T12:24:41.644Z,8.39
2023-04-02T12:25:41.086Z,8.33
2023-04-02T12:26:37.863Z,8.45
2023-04-02T12:27:29.944Z,8.35
2023-04-02T12:28:22.597Z,8.13
2023-04-02T12:29:27.285Z,8.22
2023-04-02T12:30:23.485Z,8.20
2023-04-02T12:31:19.167Z,8.19
2023-04-02T12:32:27.687Z,8.25
2023-04-02T12:33:20.875Z,8.27
2023-04-02T12:34:20.792Z,8.34
2023-04-02T12:35:34.602Z,8.29
2023-04-02T12:36:26.835Z,8.32
2023-04-02T12:37:28.164Z,8.28
2023-04-02T12:38:25.674Z,8.28
2023-04-02T12:39:17.309Z,8.31
2023-04-02T12:40:17.517Z,8.41
2023-04-02T12:41:30.883Z,8.42
2023-04-02T12:42:36.672Z,8.35
2023-04-02T12:43:31.790Z,8.29
2023-04-02T12:44:27.735Z,8.42
2023-04-02T12:45:34.201Z,8.69
2023-04-02T12:46:26.778Z,8.88
2023-04-02T12:47:18.466Z,8.84
2023-04-02T12:48:35.946Z,8.97
2023-04-02T12:49:40.376Z,8.90
2023-04-02T12:50:34.319Z,9.21
2023-04-02T12:51:29.528Z,9.29
2023-04-02T12:52:28.604Z,9.34
2023-04-02T12:53:30.267Z,9.09
2023-04-02T12:54:30.863Z,9.22
2023-04-02T12:55:25.924Z,9.32
2023-04-02T12:56:24.149Z,9.41
2023-04-02T12:57:27.625Z,9.66
2023-04-02T12:58:25.891Z,9.35
2023-04-02T12:59:36.107Z,9.34
2023-04-02T13:00:32.332Z,9.38
2023-04-02T13:01:29.282Z,9.13
2023-04-02T13:02:53.047Z,9.18
2023-04-02T13:04:16.593Z,9.02
2023-04-02T13:05:13.069Z,9.09
2023-04-02T13:06:37.140Z,9.03
2023-04-02T13:07:45.117Z,8.91
2023-04-02T13:08:56.474Z,8.91
2023-04-02T13:10:22.731Z,8.80
2023-04-02T13:11:14.578Z,9.12
2023-04-02T13:12:08.717Z,9.04
2023-04-02T13:13:04.072Z,9.31
2023-04-02T13:14:04.845Z,9.35
2023-04-02T13:15:28.396Z,9.48
2023-04-02T13:16:20.215Z,9.25
2023-04-02T13:17:38.795Z,9.27
2023-04-02T13:18:35.625Z,9.47
2023-04-02T13:19:38.193Z,9.48
2023-04-02T13:20:38.963Z,9.43
2023-04-02T13:21:42.192Z,9.23
2023-04-02T13:22:42.886Z,9.21
2023-04-02T13:23:42.723Z,9.11
2023-04-02T13:24:44.300Z,9.22
2023-04-02T13:25:45.335Z,9.34
2023-04-02T13:26:43.559Z,9.29
2023-04-02T13:27:40.337Z,9.30
2023-04-02T13:28:34.538Z,9.33
2023-04-02T13:29:35.170Z,9.52
2023-04-02T13:30:28.570Z,9.49
2023-04-02T13:31:20.051Z,9.51
2023-04-02T13:32:15.545Z,9.70
2023-04-02T13:33:07.802Z,9.70
2023-04-02T13:34:17.825Z,9.60
2023-04-02T13:35:09.252Z,9.71
2023-04-02T13:36:00.743Z,9.86
2023-04-02T13:36:52.289Z,9.82
2023-04-02T13:37:43.806Z,9.71
2023-04-02T13:38:35.386Z,9.75
2023-04-02T13:39:27.199Z,9.76
2023-04-02T13:42:10.742Z,9.77
2023-04-02T13:43:03.626Z,9.70
2023-04-02T13:43:58.234Z,9.80
2023-04-02T13:44:51.389Z,9.72
2023-04-02T13:45:44.022Z,9.44
2023-04-02T13:46:39.903Z,9.20
2023-04-02T13:47:31.526Z,9.09
2023-04-02T13:48:26.044Z,9.12
2023-04-02T13:49:18.318Z,9.15
2023-04-02T13:50:18.408Z,9.19